Metar z pełnej godziny Komunikat METAR ze strony awiacja.imgw.pl Metar G00 EPMO METAR EPMO 230800Z 24017KT CAVOK 08/01 Q1018 =